Time;durP1;ratioP1;P1;durP2;ratioP2;P2;SDS_P1;SDS_P2;PMS_P1;PMS_P2;Temp;Humidity;BMP_temperature;BMP_pressure;BME280_temperature;BME280_humidity;BME280_pressure;Samples;Min_cycle;Max_cycle;Signal;HPM_P1;HPM_P2
2021/03/04 00:00:37;;;;;;;18.00;8.40;;;10.50;99.90;;;;;;5046683;28;20180;-63
2021/03/04 00:03:04;;;;;;;11.70;8.40;;;10.50;99.90;;;;;;5032657;28;20220;-63
2021/03/04 00:05:31;;;;;;;8.90;7.90;;;10.50;99.90;;;;;;5032470;28;20870;-63
2021/03/04 00:07:57;;;;;;;9.63;8.10;;;10.60;99.90;;;;;;5033244;28;20414;-63
2021/03/04 00:10:23;;;;;;;10.27;7.97;;;10.50;99.90;;;;;;5032844;28;20899;-63
2021/03/04 00:12:50;;;;;;;12.50;8.13;;;10.40;99.90;;;;;;5032768;28;20787;-63
2021/03/04 00:15:18;;;;;;;11.20;7.50;;;10.40;99.90;;;;;;5032780;28;20402;-63
2021/03/04 00:17:45;;;;;;;11.03;7.60;;;10.30;99.90;;;;;;5032595;28;20413;-63
2021/03/04 00:20:16;;;;;;;12.93;8.23;;;10.30;99.90;;;;;;5032036;28;20416;-63
2021/03/04 00:22:42;;;;;;;8.50;7.70;;;10.30;99.90;;;;;;5032912;28;20393;-63
2021/03/04 00:25:09;;;;;;;11.87;8.17;;;10.30;99.90;;;;;;5032610;28;20441;-63
2021/03/04 00:27:35;;;;;;;8.70;7.40;;;10.30;99.90;;;;;;5015767;28;20192;-63
2021/03/04 00:30:01;;;;;;;9.90;7.47;;;10.30;99.90;;;;;;5032649;28;20446;-63
2021/03/04 00:32:27;;;;;;;14.10;8.37;;;10.40;99.90;;;;;;5032571;28;20274;-65
2021/03/04 00:34:52;;;;;;;10.50;7.87;;;10.40;99.90;;;;;;5033307;28;20500;-63
2021/03/04 00:37:18;;;;;;;9.30;6.90;;;10.20;99.90;;;;;;5036263;28;20179;-63
2021/03/04 00:39:44;;;;;;;9.93;7.70;;;10.30;99.90;;;;;;5035721;28;20177;-63
2021/03/04 00:42:10;;;;;;;9.93;6.80;;;10.40;99.90;;;;;;5036394;28;20180;-63
2021/03/04 00:44:36;;;;;;;12.50;7.60;;;10.40;99.90;;;;;;5037302;28;20214;-63
2021/03/04 00:47:03;;;;;;;7.63;6.87;;;10.40;99.90;;;;;;5036109;28;20406;-63
2021/03/04 00:49:28;;;;;;;8.33;6.67;;;10.50;99.90;;;;;;5036321;28;20213;-63
2021/03/04 00:51:54;;;;;;;10.67;7.97;;;10.50;99.90;;;;;;5035765;28;20519;-63
2021/03/04 00:54:20;;;;;;;8.50;7.33;;;10.50;99.90;;;;;;5034929;28;20202;-63
2021/03/04 00:56:45;;;;;;;10.70;7.33;;;10.40;99.90;;;;;;5036170;28;20409;-63
2021/03/04 00:59:11;;;;;;;10.03;6.70;;;10.30;99.90;;;;;;5035956;28;20175;-63
2021/03/04 01:01:36;;;;;;;7.57;6.20;;;10.30;99.90;;;;;;5035866;28;20256;-63
2021/03/04 01:04:02;;;;;;;8.20;6.73;;;10.30;99.90;;;;;;5035778;28;20249;-63
2021/03/04 01:06:28;;;;;;;8.23;6.57;;;10.40;99.90;;;;;;5035557;28;20165;-63
2021/03/04 01:08:53;;;;;;;10.60;6.97;;;10.30;99.90;;;;;;5017155;28;20254;-62
2021/03/04 01:11:19;;;;;;;10.30;7.03;;;10.20;99.90;;;;;;5035665;28;20174;-63
2021/03/04 01:13:45;;;;;;;8.10;6.60;;;10.00;99.90;;;;;;5035770;28;20198;-63
2021/03/04 01:16:11;;;;;;;8.30;6.37;;;10.00;99.90;;;;;;5035148;28;20178;-63
2021/03/04 01:18:36;;;;;;;8.47;6.30;;;10.00;99.90;;;;;;5035130;28;20266;-63
2021/03/04 01:21:04;;;;;;;7.67;6.10;;;10.00;99.90;;;;;;5035462;28;20206;-63
2021/03/04 01:23:29;;;;;;;7.23;6.27;;;10.10;99.90;;;;;;5035627;28;20320;-63
2021/03/04 01:25:55;;;;;;;10.33;6.73;;;10.20;99.90;;;;;;5035101;28;20447;-63
2021/03/04 01:28:20;;;;;;;8.90;6.70;;;10.20;99.90;;;;;;5036152;28;20164;-63
2021/03/04 01:30:46;;;;;;;9.27;5.87;;;10.30;99.90;;;;;;5035324;28;20659;-63
2021/03/04 01:33:12;;;;;;;7.70;6.60;;;10.40;99.90;;;;;;5035158;28;20187;-63
2021/03/04 01:35:37;;;;;;;7.80;5.97;;;10.20;99.90;;;;;;5035120;28;20643;-63
2021/03/04 01:38:03;;;;;;;9.20;6.23;;;10.20;99.90;;;;;;5040901;28;20273;-63
2021/03/04 01:40:29;;;;;;;8.67;7.13;;;10.10;99.90;;;;;;5055264;28;20188;-63
2021/03/04 01:42:55;;;;;;;7.70;6.40;;;10.10;99.90;;;;;;5054775;28;20240;-63
2021/03/04 01:45:21;;;;;;;8.73;7.37;;;10.10;99.90;;;;;;5053424;28;20674;-64
2021/03/04 01:47:53;;;;;;;10.10;6.90;;;10.00;99.90;;;;;;5034051;28;20212;-63
2021/03/04 01:50:20;;;;;;;9.47;7.07;;;10.10;99.90;;;;;;5034530;28;20410;-63
2021/03/04 01:52:46;;;;;;;8.40;7.13;;;10.10;99.90;;;;;;5034363;28;20455;-63
2021/03/04 01:55:15;;;;;;;11.53;6.77;;;10.10;99.90;;;;;;5034870;28;20463;-63
2021/03/04 01:57:42;;;;;;;9.80;7.30;;;10.10;99.90;;;;;;5035011;28;20829;-63
2021/03/04 02:00:09;;;;;;;10.60;7.43;;;10.10;99.90;;;;;;5034732;28;20409;-63
2021/03/04 02:02:35;;;;;;;9.10;6.80;;;10.10;99.90;;;;;;5034969;28;20404;-63
2021/03/04 02:05:00;;;;;;;8.70;7.07;;;10.10;99.90;;;;;;5034341;28;20819;-63
2021/03/04 02:07:44;;;;;;;10.60;7.80;;;10.00;99.90;;;;;;5034650;28;20480;-63
2021/03/04 02:10:17;;;;;;;9.73;8.07;;;10.00;99.90;;;;;;5034864;28;20198;-63
2021/03/04 02:13:14;;;;;;;10.20;7.63;;;10.00;99.90;;;;;;5034725;28;20480;-63
2021/03/04 02:15:55;;;;;;;8.00;7.20;;;10.00;99.90;;;;;;5017032;28;20528;-63
2021/03/04 02:18:25;;;;;;;9.20;7.53;;;10.10;99.90;;;;;;5022776;28;20853;-63
2021/03/04 02:21:21;;;;;;;9.23;7.53;;;10.00;99.90;;;;;;5033253;28;20414;-63
2021/03/04 02:24:20;;;;;;;13.60;7.67;;;10.00;99.90;;;;;;5034450;28;20571;-63
2021/03/04 02:27:01;;;;;;;9.50;7.37;;;10.00;99.90;;;;;;5034019;28;20401;-63
2021/03/04 02:29:29;;;;;;;8.50;7.20;;;9.90;99.90;;;;;;5033672;28;20396;-64
2021/03/04 02:31:58;;;;;;;9.83;7.70;;;9.80;99.90;;;;;;5014326;28;20556;-63
2021/03/04 02:34:26;;;;;;;9.23;7.77;;;9.90;99.90;;;;;;5014258;28;20437;-63
2021/03/04 02:36:54;;;;;;;8.07;6.97;;;10.00;99.90;;;;;;5014353;28;20425;-63
2021/03/04 02:39:20;;;;;;;10.67;8.70;;;9.90;99.90;;;;;;5014090;28;20413;-63
2021/03/04 02:41:46;;;;;;;11.97;8.23;;;9.80;99.90;;;;;;5025710;28;20425;-63
2021/03/04 02:44:13;;;;;;;11.00;7.87;;;9.80;99.90;;;;;;5033222;28;20467;-63
2021/03/04 02:46:40;;;;;;;12.20;9.13;;;9.70;99.90;;;;;;5033205;28;20193;-63
2021/03/04 02:49:07;;;;;;;9.80;7.70;;;9.60;99.90;;;;;;5033807;28;20823;-63
2021/03/04 02:51:36;;;;;;;14.40;8.67;;;9.50;99.90;;;;;;5034022;28;20400;-63
2021/03/04 02:54:03;;;;;;;11.70;8.67;;;9.50;99.90;;;;;;5032421;28;20475;-63
2021/03/04 02:56:31;;;;;;;10.87;9.07;;;9.60;99.90;;;;;;5033690;28;20409;-63
2021/03/04 02:58:58;;;;;;;11.63;9.13;;;9.70;99.90;;;;;;5034445;28;20750;-63
2021/03/04 03:01:27;;;;;;;17.83;9.47;;;9.60;99.90;;;;;;5033488;28;20763;-64
2021/03/04 03:03:54;;;;;;;8.67;7.00;;;9.70;99.90;;;;;;5032716;28;20458;-63
2021/03/04 03:06:21;;;;;;;9.33;8.30;;;9.70;99.90;;;;;;5033487;28;20491;-63
2021/03/04 03:08:48;;;;;;;10.60;8.07;;;9.90;99.90;;;;;;5033737;28;20409;-63
2021/03/04 03:11:18;;;;;;;12.60;8.27;;;9.90;99.90;;;;;;5033972;28;20408;-63
2021/03/04 03:13:48;;;;;;;9.97;7.83;;;10.00;99.90;;;;;;5033365;28;20917;-63
2021/03/04 03:16:14;;;;;;;8.27;7.37;;;10.00;99.90;;;;;;5033671;28;20481;-63
2021/03/04 03:18:40;;;;;;;9.83;8.23;;;10.00;99.90;;;;;;5032903;28;20409;-63
2021/03/04 03:21:06;;;;;;;11.67;8.00;;;9.90;99.90;;;;;;5033178;28;20432;-64
2021/03/04 03:23:31;;;;;;;10.67;7.90;;;9.80;99.90;;;;;;5033202;28;20222;-63
2021/03/04 03:25:57;;;;;;;11.73;8.07;;;9.80;99.90;;;;;;5032835;28;20280;-63
2021/03/04 03:28:23;;;;;;;7.70;6.57;;;9.70;99.90;;;;;;5032812;28;20660;-63
2021/03/04 03:30:49;;;;;;;9.77;7.77;;;9.60;99.90;;;;;;5033977;28;20173;-63
2021/03/04 03:33:17;;;;;;;10.70;7.17;;;9.70;99.90;;;;;;5032794;28;20439;-63
2021/03/04 03:35:43;;;;;;;8.33;7.00;;;9.70;99.90;;;;;;5032895;28;20173;-63
2021/03/04 03:38:09;;;;;;;9.40;7.63;;;9.70;99.90;;;;;;5033120;28;20791;-63
2021/03/04 03:40:36;;;;;;;10.13;7.77;;;9.60;99.90;;;;;;5032157;28;20173;-63
2021/03/04 03:43:13;;;;;;;9.43;6.80;;;9.70;99.90;;;;;;5032917;28;20452;-63
2021/03/04 03:45:50;;;;;;;8.20;6.70;;;9.80;99.90;;;;;;5050129;28;20968;-63
2021/03/04 03:48:18;;;;;;;10.20;7.30;;;9.70;99.90;;;;;;5034865;28;20417;-64
2021/03/04 03:50:48;;;;;;;8.30;6.93;;;9.70;99.90;;;;;;5052682;28;20415;-63
2021/03/04 03:53:14;;;;;;;12.60;7.60;;;9.80;99.90;;;;;;5053270;28;20795;-63
2021/03/04 03:55:52;;;;;;;9.40;6.50;;;9.70;99.90;;;;;;5053729;28;20419;-63
2021/03/04 03:58:20;;;;;;;12.27;7.70;;;9.80;99.90;;;;;;5053570;28;20403;-63
2021/03/04 04:00:47;;;;;;;8.43;6.73;;;9.80;99.90;;;;;;5053000;28;20416;-63
2021/03/04 04:03:13;;;;;;;7.67;6.40;;;9.70;99.90;;;;;;5046556;28;20820;-63
2021/03/04 04:05:40;;;;;;;8.77;6.60;;;9.60;99.90;;;;;;5032620;28;20941;-63
2021/03/04 04:08:06;;;;;;;9.47;6.80;;;9.50;99.90;;;;;;5033071;28;20462;-63
2021/03/04 04:10:34;;;;;;;10.83;6.97;;;9.40;99.90;;;;;;5035117;28;20490;-63
2021/03/04 04:13:00;;;;;;;7.77;6.90;;;9.40;99.90;;;;;;5035636;28;20295;-63
2021/03/04 04:15:27;;;;;;;9.27;7.00;;;9.20;99.90;;;;;;5036743;28;20602;-63
2021/03/04 04:17:56;;;;;;;8.97;6.77;;;9.30;99.90;;;;;;5037073;28;20417;-63
2021/03/04 04:20:22;;;;;;;9.33;7.20;;;9.10;99.90;;;;;;5036364;28;20437;-63
2021/03/04 04:22:50;;;;;;;8.47;6.63;;;9.10;99.90;;;;;;5036495;28;20440;-63
2021/03/04 04:25:18;;;;;;;8.33;6.67;;;9.20;99.90;;;;;;5036469;28;20450;-63
2021/03/04 04:27:43;;;;;;;10.63;8.07;;;9.30;99.90;;;;;;5036771;28;20414;-63
2021/03/04 04:30:10;;;;;;;8.07;6.90;;;9.40;99.90;;;;;;5036129;28;20495;-63
2021/03/04 04:32:36;;;;;;;8.73;7.00;;;9.40;99.90;;;;;;5036436;28;20232;-63
2021/03/04 04:35:02;;;;;;;9.10;8.17;;;9.30;99.90;;;;;;5036270;28;20430;-63
2021/03/04 04:37:27;;;;;;;11.67;7.83;;;9.30;99.90;;;;;;5036185;28;20184;-63
2021/03/04 04:39:53;;;;;;;8.87;7.97;;;9.30;99.90;;;;;;5035963;28;20408;-63
2021/03/04 04:42:18;;;;;;;10.40;6.70;;;9.30;99.90;;;;;;5035663;28;20188;-63
2021/03/04 04:44:44;;;;;;;9.10;7.53;;;9.30;99.90;;;;;;5036046;28;20218;-63
2021/03/04 04:47:10;;;;;;;17.13;7.67;;;9.30;99.90;;;;;;5035917;28;20239;-63
2021/03/04 04:49:35;;;;;;;9.17;8.27;;;9.40;99.90;;;;;;5036253;28;20180;-63
2021/03/04 04:52:01;;;;;;;14.30;9.57;;;9.30;99.90;;;;;;5036262;28;20177;-63
2021/03/04 04:54:27;;;;;;;10.50;7.17;;;9.20;99.90;;;;;;5036333;28;20700;-63
2021/03/04 04:56:52;;;;;;;8.87;7.30;;;9.20;99.90;;;;;;5035889;28;20228;-63
2021/03/04 04:59:18;;;;;;;10.13;7.90;;;9.10;99.90;;;;;;5036247;28;20595;-63
2021/03/04 05:01:43;;;;;;;9.43;7.77;;;9.10;99.90;;;;;;5035988;28;20256;-63
2021/03/04 05:04:09;;;;;;;9.37;7.40;;;9.00;99.90;;;;;;5035783;28;20555;-63
2021/03/04 05:06:34;;;;;;;8.57;7.27;;;8.90;99.90;;;;;;5035770;28;20246;-63
2021/03/04 05:09:00;;;;;;;9.50;7.37;;;8.90;99.90;;;;;;5034817;28;20169;-63
2021/03/04 05:11:26;;;;;;;7.60;6.37;;;9.00;99.90;;;;;;5032818;28;20176;-63
2021/03/04 05:13:51;;;;;;;12.20;7.97;;;9.10;99.90;;;;;;5034842;28;20688;-62
2021/03/04 05:16:17;;;;;;;8.60;7.30;;;9.10;99.90;;;;;;5035689;28;20642;-63
2021/03/04 05:18:43;;;;;;;9.70;7.63;;;8.90;99.90;;;;;;5035504;28;20169;-63
2021/03/04 05:21:08;;;;;;;9.10;6.70;;;8.90;99.90;;;;;;5035259;28;20170;-63
2021/03/04 05:23:34;;;;;;;8.43;6.63;;;8.90;99.90;;;;;;5031982;28;20276;-63
2021/03/04 05:26:00;;;;;;;10.07;7.43;;;9.00;99.90;;;;;;5025660;28;20191;-62
2021/03/04 05:28:25;;;;;;;10.40;7.80;;;9.00;99.90;;;;;;5035334;28;20169;-62
2021/03/04 05:30:52;;;;;;;11.03;6.83;;;8.90;99.90;;;;;;5035198;28;20177;-63
2021/03/04 05:33:19;;;;;;;8.87;7.70;;;8.90;99.90;;;;;;5035574;28;20187;-62
2021/03/04 05:35:44;;;;;;;8.90;7.67;;;9.00;99.90;;;;;;5017007;28;20419;-63
2021/03/04 05:38:10;;;;;;;9.93;8.57;;;9.00;99.90;;;;;;5034534;28;20505;-63
2021/03/04 05:40:36;;;;;;;12.13;8.07;;;9.00;99.90;;;;;;5034867;28;20555;-63
2021/03/04 05:43:01;;;;;;;14.03;7.80;;;9.00;99.90;;;;;;5034522;28;20170;-63
2021/03/04 05:45:29;;;;;;;10.97;8.10;;;9.00;99.90;;;;;;5046476;28;20273;-63
2021/03/04 05:47:56;;;;;;;13.13;9.10;;;8.90;99.90;;;;;;5054526;28;20395;-62
2021/03/04 05:50:23;;;;;;;11.43;8.03;;;8.70;99.90;;;;;;5045705;28;20422;-62
2021/03/04 05:52:55;;;;;;;9.37;8.10;;;8.80;99.90;;;;;;5034727;28;20404;-63
2021/03/04 05:55:22;;;;;;;14.47;9.20;;;8.90;99.90;;;;;;5035054;28;20466;-63
2021/03/04 05:57:51;;;;;;;10.23;8.57;;;8.80;99.90;;;;;;5034018;28;20497;-63
2021/03/04 06:00:17;;;;;;;10.77;8.97;;;8.80;99.90;;;;;;5034156;28;20963;-63
2021/03/04 06:02:45;;;;;;;9.00;7.80;;;8.80;99.90;;;;;;5034910;28;20449;-63
2021/03/04 06:05:14;;;;;;;10.93;8.17;;;8.70;99.90;;;;;;5034391;28;20450;-62
2021/03/04 06:07:44;;;;;;;10.87;8.40;;;8.50;99.90;;;;;;5034694;28;20430;-63
2021/03/04 06:10:11;;;;;;;10.20;8.13;;;8.50;99.90;;;;;;5034362;28;20404;-63
2021/03/04 06:12:37;;;;;;;9.30;8.10;;;8.50;99.90;;;;;;5033379;28;20535;-63
2021/03/04 06:15:03;;;;;;;11.77;8.70;;;8.60;99.90;;;;;;5034318;28;20423;-63
2021/03/04 06:17:29;;;;;;;11.07;8.27;;;8.60;99.90;;;;;;5034211;28;20551;-63
2021/03/04 06:19:56;;;;;;;11.00;9.80;;;8.60;99.90;;;;;;5034158;28;20485;-62
2021/03/04 06:22:25;;;;;;;12.90;8.43;;;8.70;99.90;;;;;;5033555;28;20172;-62
2021/03/04 06:24:56;;;;;;;10.73;8.57;;;8.60;99.90;;;;;;5034317;28;20487;-61
2021/03/04 06:27:33;;;;;;;9.37;8.10;;;8.60;99.90;;;;;;5033324;28;20406;-62
2021/03/04 06:30:01;;;;;;;10.53;7.97;;;8.50;99.90;;;;;;5034557;28;20457;-63
2021/03/04 06:32:27;;;;;;;11.03;8.83;;;8.50;99.90;;;;;;5033170;28;20890;-63
2021/03/04 06:35:08;;;;;;;12.90;9.27;;;8.60;99.90;;;;;;5034059;28;20432;-63
2021/03/04 06:37:37;;;;;;;15.60;9.30;;;8.70;99.90;;;;;;5033903;28;20415;-63
2021/03/04 06:40:06;;;;;;;12.20;8.27;;;8.80;99.90;;;;;;5016620;28;20410;-63
2021/03/04 06:42:39;;;;;;;12.37;8.73;;;8.90;99.90;;;;;;5033850;28;20427;-64
2021/03/04 06:45:06;;;;;;;11.33;8.60;;;9.00;99.90;;;;;;5067997;23;20488;-63
2021/03/04 06:47:32;;;;;;;10.20;8.80;;;9.00;99.90;;;;;;5054542;28;20399;-63
2021/03/04 06:49:58;;;;;;;11.50;8.40;;;9.10;99.90;;;;;;5053984;28;20892;-62
2021/03/04 06:52:31;;;;;;;11.87;9.10;;;9.10;99.90;;;;;;5053864;28;20179;-63
2021/03/04 06:55:13;;;;;;;10.73;8.90;;;9.20;99.90;;;;;;5053050;28;20621;-66
2021/03/04 06:57:39;;;;;;;13.70;8.73;;;9.20;99.90;;;;;;5053685;28;20459;-64
2021/03/04 07:00:20;;;;;;;17.30;9.63;;;9.40;99.90;;;;;;5034939;28;20422;-62
2021/03/04 07:02:53;;;;;;;11.17;8.40;;;9.30;99.90;;;;;;5053913;28;20800;-62
2021/03/04 07:05:20;;;;;;;12.80;7.53;;;9.40;99.90;;;;;;5035658;28;20461;-64
2021/03/04 07:07:53;;;;;;;15.00;8.87;;;9.50;99.90;;;;;;5052866;28;20428;-64
2021/03/04 07:10:27;;;;;;;11.20;8.40;;;9.60;99.90;;;;;;5053794;28;20402;-63
2021/03/04 07:12:53;;;;;;;11.47;8.93;;;9.60;99.90;;;;;;5054767;28;20552;-64
2021/03/04 07:15:20;;;;;;;11.90;8.90;;;9.60;99.90;;;;;;5053667;28;20927;-63
2021/03/04 07:17:50;;;;;;;13.90;8.50;;;9.70;99.90;;;;;;5055248;28;20777;-64
2021/03/04 07:20:18;;;;;;;9.90;8.67;;;9.80;99.90;;;;;;5054323;28;20403;-64
2021/03/04 07:22:45;;;;;;;14.27;8.67;;;10.10;99.90;;;;;;5053745;28;20792;-65
2021/03/04 07:25:13;;;;;;;13.63;8.67;;;10.20;99.90;;;;;;5053679;28;20797;-61
2021/03/04 07:27:39;;;;;;;11.87;8.70;;;10.40;99.90;;;;;;5059040;28;20405;-63
2021/03/04 07:30:06;;;;;;;11.20;7.90;;;10.50;99.90;;;;;;5058052;28;20412;-62
2021/03/04 07:32:33;;;;;;;14.60;9.07;;;10.60;99.70;;;;;;5058206;28;20405;-62
2021/03/04 07:34:59;;;;;;;14.60;8.93;;;10.70;99.80;;;;;;5057905;28;20432;-62
2021/03/04 07:37:24;;;;;;;13.20;9.13;;;10.70;99.70;;;;;;5059050;28;20428;-60
2021/03/04 07:39:59;;;;;;;16.47;10.53;;;10.80;99.80;;;;;;5040310;28;20417;-62
2021/03/04 07:42:25;;;;;;;13.17;10.00;;;10.80;98.80;;;;;;5058543;28;20162;-64
2021/03/04 07:44:51;;;;;;;12.13;10.63;;;10.90;98.70;;;;;;5057944;28;20463;-62
2021/03/04 07:47:27;;;;;;;14.77;12.63;;;11.10;98.20;;;;;;5059544;28;20415;-61
2021/03/04 07:49:53;;;;;;;14.50;9.73;;;11.30;97.60;;;;;;5055362;28;20208;-62
2021/03/04 07:52:21;;;;;;;15.47;10.43;;;11.50;97.60;;;;;;5056554;28;20401;-60
2021/03/04 07:54:50;;;;;;;11.93;9.37;;;11.80;97.60;;;;;;5056069;28;20881;-62
2021/03/04 07:57:16;;;;;;;13.10;10.07;;;12.00;96.50;;;;;;5056683;28;20467;-62
2021/03/04 07:59:54;;;;;;;17.80;10.23;;;12.30;95.60;;;;;;5056260;28;20464;-62
2021/03/04 08:02:32;;;;;;;12.40;9.93;;;12.30;95.20;;;;;;5055339;28;20435;-63
2021/03/04 08:05:10;;;;;;;12.80;9.40;;;12.40;95.50;;;;;;5054314;28;20456;-63
2021/03/04 08:07:37;;;;;;;9.67;8.27;;;12.40;94.80;;;;;;5037057;28;20406;-61
2021/03/04 08:10:10;;;;;;;17.40;10.80;;;12.40;94.60;;;;;;5055018;28;20411;-62
2021/03/04 08:12:58;;;;;;;16.80;10.90;;;12.30;94.10;;;;;;5054556;28;20866;-63
2021/03/04 08:15:32;;;;;;;13.70;9.60;;;12.40;93.70;;;;;;5053557;28;20428;-62
2021/03/04 08:17:59;;;;;;;15.20;10.27;;;12.60;93.30;;;;;;5042885;28;20424;-62
2021/03/04 08:20:24;;;;;;;13.00;8.93;;;12.50;92.70;;;;;;5053858;28;20463;-63
2021/03/04 08:22:53;;;;;;;13.83;9.10;;;12.60;92.60;;;;;;5043882;28;20425;-63
2021/03/04 08:25:27;;;;;;;11.73;9.07;;;12.90;92.90;;;;;;5055394;28;20566;-63
2021/03/04 08:27:54;;;;;;;13.33;9.37;;;13.10;92.50;;;;;;5056030;28;20400;-63
2021/03/04 08:30:31;;;;;;;14.50;9.53;;;12.80;91.50;;;;;;5056555;28;20450;-63
2021/03/04 08:33:00;;;;;;;12.13;9.00;;;12.70;91.60;;;;;;5057149;28;20476;-63
2021/03/04 08:35:27;;;;;;;10.43;8.80;;;12.60;91.40;;;;;;5056770;28;20817;-63
2021/03/04 08:38:03;;;;;;;12.77;8.50;;;12.60;91.30;;;;;;5056509;28;20416;-62
2021/03/04 08:40:37;;;;;;;10.87;8.83;;;12.60;91.00;;;;;;5056319;28;20393;-62
2021/03/04 08:43:11;;;;;;;11.50;8.00;;;12.80;90.90;;;;;;5056520;28;20395;-63
2021/03/04 08:45:36;;;;;;;11.70;8.30;;;13.10;91.20;;;;;;5056723;28;20918;-63
2021/03/04 08:48:10;;;;;;;9.00;8.00;;;13.30;90.40;;;;;;5053524;28;20445;-60
2021/03/04 08:50:37;;;;;;;13.40;8.33;;;13.40;90.30;;;;;;5052510;28;20292;-63
2021/03/04 08:53:08;;;;;;;14.45;8.48;;;13.30;89.30;;;;;;5054939;28;20412;-63
2021/03/04 08:55:36;;;;;;;10.27;7.30;;;13.60;89.60;;;;;;5056035;28;20567;-62
2021/03/04 08:58:05;;;;;;;12.30;8.93;;;13.50;89.00;;;;;;5057649;28;20518;-63
2021/03/04 09:00:31;;;;;;;10.73;8.30;;;13.60;90.00;;;;;;5058302;28;20403;-62
2021/03/04 09:03:09;;;;;;;14.53;8.97;;;13.60;89.00;;;;;;5058062;28;20401;-64
2021/03/04 09:05:35;;;;;;;11.33;8.23;;;13.70;88.30;;;;;;5056873;28;20205;-63
2021/03/04 09:08:09;;;;;;;14.50;9.87;;;13.50;87.60;;;;;;5057275;28;20493;-61
2021/03/04 09:10:53;;;;;;;13.10;9.43;;;13.50;88.10;;;;;;5038096;28;20163;-62
2021/03/04 09:13:26;;;;;;;12.63;9.30;;;13.80;87.30;;;;;;5058285;28;20391;-65
2021/03/04 09:15:54;;;;;;;12.00;9.33;;;13.80;87.50;;;;;;5056899;28;20426;-61
2021/03/04 09:18:20;;;;;;;12.57;8.20;;;13.90;86.60;;;;;;5056641;28;20773;-64
2021/03/04 09:20:48;;;;;;;10.17;6.73;;;13.60;86.90;;;;;;5056426;28;20767;-63
2021/03/04 09:23:14;;;;;;;19.33;8.43;;;13.50;87.50;;;;;;5055955;28;20411;-62
2021/03/04 09:25:40;;;;;;;11.20;7.33;;;13.70;87.70;;;;;;5055444;28;20533;-62
2021/03/04 09:28:13;;;;;;;11.80;8.77;;;13.60;87.40;;;;;;5056136;28;20510;-63
2021/03/04 09:30:38;;;;;;;15.37;7.93;;;13.80;87.30;;;;;;5056472;28;20383;-62
2021/03/04 09:33:15;;;;;;;9.27;8.20;;;14.00;87.90;;;;;;5055843;28;20407;-62
2021/03/04 09:35:55;;;;;;;16.10;9.00;;;14.10;86.80;;;;;;5055964;28;20226;-62
2021/03/04 09:38:21;;;;;;;12.87;8.03;;;14.00;86.30;;;;;;5054402;28;20774;-63
2021/03/04 09:40:47;;;;;;;12.43;8.03;;;14.10;88.00;;;;;;5056300;28;20412;-64
2021/03/04 09:43:24;;;;;;;17.07;9.00;;;14.30;87.40;;;;;;5056808;28;20549;-61
2021/03/04 09:45:51;;;;;;;13.77;8.10;;;14.20;86.40;;;;;;5056132;28;20212;-61
2021/03/04 09:48:31;;;;;;;12.70;8.60;;;14.00;87.40;;;;;;5058889;28;20775;-61
2021/03/04 09:50:56;;;;;;;12.23;8.10;;;14.10;88.60;;;;;;5054087;28;20540;-62
2021/03/04 09:53:22;;;;;;;14.87;8.40;;;14.40;88.60;;;;;;5055058;28;20429;-62
2021/03/04 09:55:48;;;;;;;11.60;7.87;;;14.40;86.80;;;;;;5054375;28;20565;-62
2021/03/04 09:58:20;;;;;;;12.07;9.13;;;14.50;87.00;;;;;;5054883;28;20168;-61
2021/03/04 10:00:46;;;;;;;15.20;9.10;;;14.20;87.80;;;;;;5055009;28;20190;-62
2021/03/04 10:03:13;;;;;;;11.67;8.20;;;14.30;88.90;;;;;;5037072;28;20411;-61
2021/03/04 10:05:50;;;;;;;13.10;8.63;;;14.50;88.60;;;;;;5058394;28;20789;-64
2021/03/04 10:08:17;;;;;;;11.77;7.80;;;14.40;86.90;;;;;;5056568;28;20398;-63
2021/03/04 10:10:44;;;;;;;13.83;8.93;;;14.40;87.60;;;;;;5057501;28;20418;-64
2021/03/04 10:13:10;;;;;;;14.07;8.87;;;14.40;87.70;;;;;;5056896;28;20408;-64
2021/03/04 10:15:41;;;;;;;15.70;8.90;;;14.70;87.80;;;;;;5057725;28;20507;-64
2021/03/04 10:18:14;;;;;;;10.43;8.00;;;14.90;87.00;;;;;;5056230;28;20243;-63
2021/03/04 10:20:44;;;;;;;13.97;9.57;;;15.00;86.30;;;;;;5062986;28;20801;-64
2021/03/04 10:23:10;;;;;;;11.60;7.60;;;15.00;86.70;;;;;;5059654;28;20424;-63
2021/03/04 10:25:36;;;;;;;13.70;8.70;;;15.20;85.90;;;;;;5058501;28;20515;-65
2021/03/04 10:28:03;;;;;;;16.97;7.80;;;15.30;87.80;;;;;;5057318;28;20417;-63
2021/03/04 10:30:30;;;;;;;16.23;8.70;;;15.60;87.90;;;;;;5054913;28;20408;-66
2021/03/04 10:32:55;;;;;;;14.63;9.00;;;15.80;86.30;;;;;;5054593;28;20407;-63
2021/03/04 10:35:21;;;;;;;12.13;9.03;;;16.00;85.80;;;;;;5058008;28;20427;-63
2021/03/04 10:37:47;;;;;;;12.90;8.77;;;16.30;85.80;;;;;;5058517;28;20176;-60
2021/03/04 10:40:14;;;;;;;13.83;9.97;;;16.20;85.10;;;;;;5059550;28;20403;-63
2021/03/04 10:42:40;;;;;;;14.27;10.87;;;16.30;85.50;;;;;;5059816;28;20172;-63
2021/03/04 10:45:11;;;;;;;13.93;11.47;;;16.20;85.40;;;;;;5058626;28;20562;-63
2021/03/04 10:47:36;;;;;;;15.50;11.40;;;16.10;86.50;;;;;;5058920;28;20251;-64
2021/03/04 10:50:04;;;;;;;16.10;11.67;;;16.10;88.00;;;;;;5058556;28;20826;-63
2021/03/04 10:52:30;;;;;;;14.07;11.17;;;16.00;87.30;;;;;;5040532;28;20195;-64
2021/03/04 10:54:55;;;;;;;19.13;13.37;;;16.00;87.30;;;;;;5058809;28;20518;-64
2021/03/04 10:57:21;;;;;;;19.07;12.13;;;16.10;87.80;;;;;;5059205;28;20169;-63
2021/03/04 10:59:47;;;;;;;16.13;12.37;;;16.30;87.00;;;;;;5057446;28;20164;-63
2021/03/04 11:02:12;;;;;;;21.40;12.37;;;16.40;87.60;;;;;;5057346;28;20578;-63
2021/03/04 11:04:38;;;;;;;18.87;13.93;;;16.50;86.60;;;;;;5053846;28;20200;-61
2021/03/04 11:07:04;;;;;;;16.97;12.10;;;16.20;86.90;;;;;;5053369;28;20209;-62
2021/03/04 11:09:29;;;;;;;20.17;11.70;;;16.70;86.20;;;;;;5053333;28;20176;-63
2021/03/04 11:11:55;;;;;;;15.77;10.70;;;17.00;84.80;;;;;;5047786;28;20702;-64
2021/03/04 11:14:20;;;;;;;19.20;10.90;;;16.90;84.60;;;;;;5037577;28;20188;-64
2021/03/04 11:16:46;;;;;;;19.00;12.40;;;16.90;84.50;;;;;;5035270;28;20246;-63
2021/03/04 11:19:12;;;;;;;16.60;10.80;;;16.90;84.50;;;;;;5044675;28;20575;-63
2021/03/04 11:21:38;;;;;;;16.43;10.67;;;17.10;83.90;;;;;;5053438;28;20636;-63
2021/03/04 11:24:06;;;;;;;19.50;12.60;;;17.40;83.30;;;;;;5052981;28;20420;-63
2021/03/04 11:26:32;;;;;;;19.23;12.70;;;17.80;81.10;;;;;;5022998;28;20174;-63
2021/03/04 11:28:58;;;;;;;17.07;11.83;;;18.20;80.50;;;;;;5044241;28;20966;-63
2021/03/04 11:31:24;;;;;;;20.23;12.07;;;19.00;78.80;;;;;;5033713;28;20164;-63
2021/03/04 11:33:49;;;;;;;18.50;13.00;;;19.40;77.30;;;;;;5032926;28;20176;-63
2021/03/04 11:36:16;;;;;;;20.73;13.30;;;19.70;76.90;;;;;;5042336;28;20425;-61
2021/03/04 11:38:41;;;;;;;13.13;11.23;;;19.40;77.10;;;;;;5054875;28;20182;-63
2021/03/04 11:41:07;;;;;;;16.07;13.13;;;19.20;77.40;;;;;;5048784;28;20402;-64
2021/03/04 11:43:32;;;;;;;22.00;12.10;;;18.70;77.60;;;;;;5034927;28;20194;-62
2021/03/04 11:45:58;;;;;;;15.60;10.93;;;18.40;78.50;;;;;;5033198;28;20234;-62
2021/03/04 11:48:24;;;;;;;15.40;10.50;;;18.50;76.60;;;;;;5055054;28;20167;-62
2021/03/04 11:50:50;;;;;;;14.33;10.20;;;19.00;75.20;;;;;;5053083;28;20167;-62
2021/03/04 11:53:16;;;;;;;23.20;12.57;;;19.00;75.40;;;;;;5048600;28;20163;-63
2021/03/04 11:55:42;;;;;;;18.47;12.07;;;19.20;75.80;;;;;;5051043;28;20202;-62
2021/03/04 11:58:07;;;;;;;18.37;11.20;;;19.00;75.60;;;;;;5047909;28;20406;-61
2021/03/04 12:00:33;;;;;;;18.43;10.47;;;19.20;75.30;;;;;;5035690;28;20179;-63
2021/03/04 12:02:58;;;;;;;14.30;10.80;;;19.30;73.60;;;;;;5017278;28;20661;-62
2021/03/04 12:05:24;;;;;;;19.47;11.57;;;19.10;73.80;;;;;;5034279;28;20210;-63
2021/03/04 12:07:50;;;;;;;24.13;12.53;;;18.90;75.30;;;;;;5035204;28;20625;-63
2021/03/04 12:10:15;;;;;;;18.60;12.07;;;18.80;75.70;;;;;;5034767;28;20171;-63
2021/03/04 12:12:41;;;;;;;17.57;12.07;;;19.30;74.70;;;;;;5048787;28;20184;-63
2021/03/04 12:15:08;;;;;;;22.90;12.47;;;19.50;74.50;;;;;;5055000;28;20560;-62
2021/03/04 12:17:34;;;;;;;17.30;11.77;;;19.30;75.20;;;;;;5054179;28;20957;-62
2021/03/04 12:20:00;;;;;;;17.27;12.50;;;19.30;75.60;;;;;;5053367;28;20471;-62
2021/03/04 12:22:26;;;;;;;22.43;12.57;;;20.00;73.60;;;;;;5053941;28;20544;-62
2021/03/04 12:24:51;;;;;;;20.07;10.90;;;20.50;71.80;;;;;;5052521;28;20445;-61
2021/03/04 12:27:17;;;;;;;13.70;9.20;;;20.60;68.20;;;;;;5053412;28;20242;-61
2021/03/04 12:29:42;;;;;;;16.67;9.00;;;21.30;65.90;;;;;;5054162;28;20206;-62
2021/03/04 12:32:08;;;;;;;15.40;9.00;;;21.40;65.30;;;;;;5056816;28;20259;-58
2021/03/04 12:34:34;;;;;;;12.60;8.10;;;21.60;63.20;;;;;;5057561;28;20245;-62
2021/03/04 12:36:59;;;;;;;12.33;8.13;;;21.50;62.30;;;;;;5056034;28;20209;-62
2021/03/04 12:39:25;;;;;;;14.50;7.27;;;20.90;61.50;;;;;;5037422;28;20185;-62
2021/03/04 12:41:50;;;;;;;14.90;7.63;;;20.30;61.70;;;;;;5056076;28;20170;-62
2021/03/04 12:44:16;;;;;;;17.13;7.10;;;19.70;63.10;;;;;;5077761;23;20225;-65